METAR Data
IDs: Format: Raw Decoded Include TAF

Data at: 1419 UTC 10 Aug 2022

KONT 101353Z 00000KT 10SM FEW250 24/14 A3001 RMK AO2 SLP142 T02390144
KONT 101253Z 00000KT 10SM FEW200 FEW250 23/14 A2998 RMK AO2 SLP133 T02280139
KONT 101153Z 16003KT 10SM CLR 23/14 A2998 RMK AO2 SLP130 T02280139 10261 20222 58004
KONT 101053Z 14004KT 10SM CLR 23/13 A2998 RMK AO2 SLP131 T02280133
KONT 100953Z 26004KT 10SM CLR 23/13 A2998 RMK AO2 SLP132 T02330133
KONT 100853Z 25004KT 10SM FEW250 23/13 A2999 RMK AO2 SLP133 T02330133 50002
KONT 100753Z 21006KT 10SM SCT250 24/13 A2999 RMK AO2 SLP134 T02440128 403720233
KONT 100653Z 24007KT 10SM SCT250 24/13 A2999 RMK AO2 SLP136 T02440128
KONT 100553Z 27010KT 10SM BKN250 26/12 A2998 RMK AO2 SLP132 T02610122 10350 20261 51023
KONT 100453Z 27009KT 10SM BKN250 27/13 A2997 RMK AO2 SLP129 T02720128
KONT 100353Z 25009KT 10SM BKN250 29/11 A2994 RMK AO2 SLP119 T02890106
KONT 100253Z 24010KT 10SM FEW110 BKN250 30/07 A2991 RMK AO2 SLP109 CB DSNT NE T03000067 53008
KONT 100153Z 24011KT 10SM FEW110 BKN250 32/06 A2989 RMK AO2 SLP102 CB DSNT NE T03220056
KONT 100053Z 24012G18KT 10SM FEW110 SCT250 34/06 A2988 RMK AO2 SLP098 CB DSNT SE TCU DSNT NE T03390056
KONT 092353Z 25013G19KT 10SM FEW110 FEW250 35/09 A2989 RMK AO2 SLP100 CB DSNT SE T03500094 10372 20311 56009
KONT 092253Z 25013G20KT 10SM FEW110 FEW250 36/12 A2989 RMK AO2 SLP099 CB DSNT SE T03610117
KONT 092153Z 24012G17KT 10SM FEW120 FEW230 36/12 A2990 RMK AO2 SLP101 CB DSNT SE TCU DSNT NE-E T03610117
KONT 092053Z 21011G16KT 10SM FEW120 FEW220 37/12 A2992 RMK AO2 SLP106 CB DSNT SE LTL MOV TCU DSNT NE-E T03670122 58017
KONT 091953Z 24006KT 10SM FEW120 SCT220 36/11 A2993 RMK AO2 SLP114 TCU DSNT NE-E / SE T03560111
KONT 091853Z 22003KT 10SM FEW110 SCT210 33/12 A2995 RMK AO2 SLP120 TCU DSNT E T03330122
KONT 091753Z 00000KT 10SM FEW100 BKN210 31/14 A2997 RMK AO2 SLP126 T03110139 10311 20233 50002
KONT 091653Z VRB03KT 10SM BKN210 29/14 A2997 RMK AO2 SLP129 T02940144
KONT 091553Z 18003KT 10SM BKN210 27/15 A2997 RMK AO2 SLP129 T02720150
KONT 091453Z 00000KT 10SM FEW180 FEW250 26/16 A2996 RMK AO2 SLP125 T02610156 53013
KONT 091353Z 00000KT 10SM FEW200 SCT250 24/16 A2995 RMK AO2 SLP122 T02390156
KONT 091253Z 00000KT 10SM SCT170 SCT200 BKN250 24/15 A2993 RMK AO2 SLP116 T02390150
KONT 091153Z 00000KT 10SM FEW170 SCT200 24/15 A2992 RMK AO2 SLP111 T02390150 10272 20239 55002
KONT 091053Z 00000KT 10SM SCT170 SCT200 24/15 A2992 RMK AO2 SLP110 T02390150
KONT 090953Z 24008KT 10SM FEW200 BKN230 24/15 A2993 RMK AO2 SLP112 T02440150
KONT 090853Z 00000KT 10SM SCT180 BKN200 BKN230 25/16 A2993 RMK AO2 SLP112 T02500156 58005
KONT 090753Z 17005KT 10SM SCT180 BKN200 BKN230 26/14 A2994 RMK AO2 SLP118 T02560144 403610222
KONT 090653Z 20007KT 10SM SCT180 BKN200 BKN230 26/14 A2995 RMK AO2 SLP122 T02610144
KONT 090553Z 23005KT 10SM SCT180 BKN230 27/13 A2994 RMK AO2 SLP119 T02720133 10344 20272 51012
KONT 090453Z 27009KT 10SM FEW190 BKN250 28/10 A2994 RMK AO2 SLP119 T02780100
KONT 090353Z 26011KT 10SM BKN250 29/11 A2992 RMK AO2 SLP114 T02890106
KONT 090253Z 25009KT 10SM BKN250 31/09 A2991 RMK AO2 SLP109 T03060089 53010